Terminal Aerodrome Forecast
Issued by NWS

Home | Current Version | Previous Version | Text Only | Print | Product List | Glossary On
Versions: 1 2 3 4 5 6 7 8 9 10 11 12 13 14 15 16 17 18 19 20 21 22
000
FTUS41 KBOX 071724
TAFBAF
TAF
KBAF 071724Z 0718/0818 VRB03KT P6SM BKN009
     FM072000 00000KT P6SM BKN010
     FM080000 00000KT P6SM BKN045
     FM080800 00000KT P6SM SCT110=

USA.gov is the U.S. government's official web portal to all federal, state and local government web resources and services.